sensor_id;sensor_type;location;lat;lon;timestamp;P1;durP1;ratioP1;P2;durP2;ratioP2
417;SDS011;49;48.530;9.200;2024-03-29T00:01:47;2.60;;;2.20;;
417;SDS011;49;48.530;9.200;2024-03-29T00:04:13;3.97;;;2.50;;
417;SDS011;49;48.530;9.200;2024-03-29T00:06:39;5.20;;;2.47;;
417;SDS011;49;48.530;9.200;2024-03-29T00:09:05;4.80;;;2.70;;
417;SDS011;49;48.530;9.200;2024-03-29T00:11:31;5.00;;;2.43;;
417;SDS011;49;48.530;9.200;2024-03-29T00:13:57;3.03;;;2.50;;
417;SDS011;49;48.530;9.200;2024-03-29T00:16:24;4.93;;;2.30;;
417;SDS011;49;48.530;9.200;2024-03-29T00:18:50;6.03;;;2.90;;
417;SDS011;49;48.530;9.200;2024-03-29T00:21:16;3.23;;;2.50;;
417;SDS011;49;48.530;9.200;2024-03-29T00:23:42;5.10;;;2.57;;
417;SDS011;49;48.530;9.200;2024-03-29T00:26:08;3.77;;;2.50;;
417;SDS011;49;48.530;9.200;2024-03-29T00:28:34;2.80;;;2.30;;
417;SDS011;49;48.530;9.200;2024-03-29T00:31:00;3.47;;;2.30;;
417;SDS011;49;48.530;9.200;2024-03-29T00:33:27;4.20;;;2.60;;
417;SDS011;49;48.530;9.200;2024-03-29T00:35:53;2.93;;;2.30;;
417;SDS011;49;48.530;9.200;2024-03-29T00:38:19;4.13;;;2.23;;
417;SDS011;49;48.530;9.200;2024-03-29T00:40:45;4.23;;;2.37;;
417;SDS011;49;48.530;9.200;2024-03-29T00:43:11;5.67;;;2.30;;
417;SDS011;49;48.530;9.200;2024-03-29T00:45:37;3.43;;;2.50;;
417;SDS011;49;48.530;9.200;2024-03-29T00:48:03;3.20;;;2.40;;
417;SDS011;49;48.530;9.200;2024-03-29T00:50:31;3.30;;;2.40;;
417;SDS011;49;48.530;9.200;2024-03-29T00:52:57;4.00;;;2.60;;
417;SDS011;49;48.530;9.200;2024-03-29T00:55:22;3.93;;;2.10;;
417;SDS011;49;48.530;9.200;2024-03-29T00:57:49;3.30;;;3.00;;
417;SDS011;49;48.530;9.200;2024-03-29T01:00:15;6.13;;;3.10;;
417;SDS011;49;48.530;9.200;2024-03-29T01:02:41;4.27;;;2.60;;
417;SDS011;49;48.530;9.200;2024-03-29T01:05:07;2.43;;;2.30;;
417;SDS011;49;48.530;9.200;2024-03-29T01:07:34;2.87;;;2.47;;
417;SDS011;49;48.530;9.200;2024-03-29T01:10:00;6.33;;;2.60;;
417;SDS011;49;48.530;9.200;2024-03-29T01:12:26;3.43;;;2.30;;
417;SDS011;49;48.530;9.200;2024-03-29T01:14:52;4.13;;;2.40;;
417;SDS011;49;48.530;9.200;2024-03-29T01:17:18;2.47;;;2.20;;
417;SDS011;49;48.530;9.200;2024-03-29T01:19:44;2.50;;;2.30;;
417;SDS011;49;48.530;9.200;2024-03-29T01:22:10;3.90;;;2.50;;
417;SDS011;49;48.530;9.200;2024-03-29T01:24:37;2.50;;;2.30;;
417;SDS011;49;48.530;9.200;2024-03-29T01:27:03;2.80;;;2.33;;
417;SDS011;49;48.530;9.200;2024-03-29T01:29:30;5.50;;;2.23;;
417;SDS011;49;48.530;9.200;2024-03-29T01:31:55;6.07;;;2.30;;
417;SDS011;49;48.530;9.200;2024-03-29T01:34:21;2.50;;;2.37;;
417;SDS011;49;48.530;9.200;2024-03-29T01:36:47;2.67;;;2.50;;
417;SDS011;49;48.530;9.200;2024-03-29T01:39:13;2.70;;;2.23;;
417;SDS011;49;48.530;9.200;2024-03-29T01:41:40;2.43;;;2.17;;
417;SDS011;49;48.530;9.200;2024-03-29T01:44:06;2.63;;;2.37;;
417;SDS011;49;48.530;9.200;2024-03-29T01:46:34;5.03;;;2.30;;
417;SDS011;49;48.530;9.200;2024-03-29T01:49:02;4.30;;;2.60;;
417;SDS011;49;48.530;9.200;2024-03-29T01:51:30;3.17;;;2.47;;
417;SDS011;49;48.530;9.200;2024-03-29T01:53:58;2.43;;;2.27;;
417;SDS011;49;48.530;9.200;2024-03-29T01:56:26;2.53;;;2.43;;
417;SDS011;49;48.530;9.200;2024-03-29T01:58:55;2.60;;;2.40;;
417;SDS011;49;48.530;9.200;2024-03-29T02:01:24;3.70;;;2.17;;
417;SDS011;49;48.530;9.200;2024-03-29T02:03:52;2.83;;;2.30;;
417;SDS011;49;48.530;9.200;2024-03-29T02:06:20;2.67;;;2.53;;
417;SDS011;49;48.530;9.200;2024-03-29T02:08:47;4.80;;;2.63;;
417;SDS011;49;48.530;9.200;2024-03-29T02:11:18;2.40;;;2.20;;
417;SDS011;49;48.530;9.200;2024-03-29T02:13:44;3.00;;;2.60;;
417;SDS011;49;48.530;9.200;2024-03-29T02:16:13;2.60;;;2.40;;
417;SDS011;49;48.530;9.200;2024-03-29T02:18:40;6.60;;;2.50;;
417;SDS011;49;48.530;9.200;2024-03-29T02:21:07;2.63;;;2.43;;
417;SDS011;49;48.530;9.200;2024-03-29T02:23:35;4.40;;;2.23;;
417;SDS011;49;48.530;9.200;2024-03-29T02:26:07;2.43;;;2.30;;
417;SDS011;49;48.530;9.200;2024-03-29T02:28:34;2.50;;;2.13;;
417;SDS011;49;48.530;9.200;2024-03-29T02:31:01;2.53;;;2.20;;
417;SDS011;49;48.530;9.200;2024-03-29T02:33:28;2.80;;;2.33;;
417;SDS011;49;48.530;9.200;2024-03-29T02:35:55;2.23;;;2.10;;
417;SDS011;49;48.530;9.200;2024-03-29T02:38:22;3.73;;;2.30;;
417;SDS011;49;48.530;9.200;2024-03-29T02:40:49;3.30;;;2.47;;
417;SDS011;49;48.530;9.200;2024-03-29T02:43:17;3.10;;;2.30;;
417;SDS011;49;48.530;9.200;2024-03-29T02:45:44;3.50;;;2.60;;
417;SDS011;49;48.530;9.200;2024-03-29T02:48:11;2.50;;;2.30;;
417;SDS011;49;48.530;9.200;2024-03-29T02:50:36;3.20;;;2.33;;
417;SDS011;49;48.530;9.200;2024-03-29T02:53:03;2.37;;;2.17;;
417;SDS011;49;48.530;9.200;2024-03-29T02:55:29;4.50;;;2.30;;
417;SDS011;49;48.530;9.200;2024-03-29T02:57:56;3.47;;;2.50;;
417;SDS011;49;48.530;9.200;2024-03-29T03:00:23;4.03;;;2.23;;
417;SDS011;49;48.530;9.200;2024-03-29T03:02:50;2.40;;;2.20;;
417;SDS011;49;48.530;9.200;2024-03-29T03:05:16;3.90;;;2.40;;
417;SDS011;49;48.530;9.200;2024-03-29T03:07:43;2.37;;;2.17;;
417;SDS011;49;48.530;9.200;2024-03-29T03:10:27;2.40;;;2.30;;
417;SDS011;49;48.530;9.200;2024-03-29T03:13:11;2.40;;;2.30;;
417;SDS011;49;48.530;9.200;2024-03-29T03:15:40;7.03;;;2.20;;
417;SDS011;49;48.530;9.200;2024-03-29T03:18:06;2.30;;;2.00;;
417;SDS011;49;48.530;9.200;2024-03-29T03:20:33;2.47;;;2.30;;
417;SDS011;49;48.530;9.200;2024-03-29T03:23:00;2.90;;;2.20;;
417;SDS011;49;48.530;9.200;2024-03-29T03:25:27;6.80;;;2.10;;
417;SDS011;49;48.530;9.200;2024-03-29T03:27:53;3.20;;;2.20;;
417;SDS011;49;48.530;9.200;2024-03-29T03:30:20;2.67;;;2.10;;
417;SDS011;49;48.530;9.200;2024-03-29T03:32:47;3.03;;;2.20;;
417;SDS011;49;48.530;9.200;2024-03-29T03:35:14;3.90;;;2.33;;
417;SDS011;49;48.530;9.200;2024-03-29T03:37:40;3.70;;;2.53;;
417;SDS011;49;48.530;9.200;2024-03-29T03:40:07;2.60;;;2.30;;
417;SDS011;49;48.530;9.200;2024-03-29T03:42:33;3.67;;;2.20;;
417;SDS011;49;48.530;9.200;2024-03-29T03:45:00;3.23;;;2.27;;
417;SDS011;49;48.530;9.200;2024-03-29T03:47:26;2.27;;;2.10;;
417;SDS011;49;48.530;9.200;2024-03-29T03:49:54;2.63;;;2.03;;
417;SDS011;49;48.530;9.200;2024-03-29T03:52:20;2.30;;;2.00;;
417;SDS011;49;48.530;9.200;2024-03-29T03:54:47;2.50;;;2.23;;
417;SDS011;49;48.530;9.200;2024-03-29T03:57:12;2.30;;;2.10;;
417;SDS011;49;48.530;9.200;2024-03-29T03:59:39;2.33;;;2.03;;
417;SDS011;49;48.530;9.200;2024-03-29T04:02:05;2.20;;;2.00;;
417;SDS011;49;48.530;9.200;2024-03-29T04:04:32;2.80;;;2.40;;
417;SDS011;49;48.530;9.200;2024-03-29T04:06:59;3.60;;;2.47;;
417;SDS011;49;48.530;9.200;2024-03-29T04:09:26;5.67;;;2.60;;
417;SDS011;49;48.530;9.200;2024-03-29T04:11:51;2.40;;;2.27;;
417;SDS011;49;48.530;9.200;2024-03-29T04:14:18;2.70;;;2.17;;
417;SDS011;49;48.530;9.200;2024-03-29T04:16:46;2.67;;;2.30;;
417;SDS011;49;48.530;9.200;2024-03-29T04:19:12;2.53;;;2.30;;
417;SDS011;49;48.530;9.200;2024-03-29T04:21:38;5.60;;;3.40;;
417;SDS011;49;48.530;9.200;2024-03-29T04:24:07;4.17;;;3.33;;
417;SDS011;49;48.530;9.200;2024-03-29T04:26:35;3.80;;;3.37;;
417;SDS011;49;48.530;9.200;2024-03-29T04:29:01;4.57;;;3.27;;
417;SDS011;49;48.530;9.200;2024-03-29T04:31:27;5.80;;;3.20;;
417;SDS011;49;48.530;9.200;2024-03-29T04:33:54;3.90;;;3.03;;
417;SDS011;49;48.530;9.200;2024-03-29T04:36:20;6.50;;;3.50;;
417;SDS011;49;48.530;9.200;2024-03-29T04:38:47;6.90;;;3.10;;
417;SDS011;49;48.530;9.200;2024-03-29T04:41:15;3.33;;;2.77;;
417;SDS011;49;48.530;9.200;2024-03-29T04:43:42;3.20;;;2.30;;
417;SDS011;49;48.530;9.200;2024-03-29T04:46:10;2.90;;;2.50;;
417;SDS011;49;48.530;9.200;2024-03-29T04:48:38;2.20;;;2.10;;
417;SDS011;49;48.530;9.200;2024-03-29T04:51:05;2.07;;;1.97;;
417;SDS011;49;48.530;9.200;2024-03-29T04:53:32;2.37;;;2.20;;
417;SDS011;49;48.530;9.200;2024-03-29T04:55:59;2.97;;;2.10;;
417;SDS011;49;48.530;9.200;2024-03-29T04:58:27;2.33;;;2.20;;
417;SDS011;49;48.530;9.200;2024-03-29T05:00:54;3.70;;;2.80;;
417;SDS011;49;48.530;9.200;2024-03-29T05:03:21;5.40;;;2.40;;
417;SDS011;49;48.530;9.200;2024-03-29T05:05:49;2.40;;;2.20;;
417;SDS011;49;48.530;9.200;2024-03-29T05:08:17;2.83;;;2.60;;
417;SDS011;49;48.530;9.200;2024-03-29T05:10:45;2.33;;;2.13;;
417;SDS011;49;48.530;9.200;2024-03-29T05:13:12;2.40;;;2.20;;
417;SDS011;49;48.530;9.200;2024-03-29T05:15:40;2.30;;;2.10;;
417;SDS011;49;48.530;9.200;2024-03-29T05:18:07;3.33;;;2.87;;
417;SDS011;49;48.530;9.200;2024-03-29T05:20:34;2.57;;;2.20;;
417;SDS011;49;48.530;9.200;2024-03-29T05:23:01;2.57;;;2.00;;
417;SDS011;49;48.530;9.200;2024-03-29T05:25:28;2.00;;;1.90;;
417;SDS011;49;48.530;9.200;2024-03-29T05:27:55;2.40;;;2.10;;
417;SDS011;49;48.530;9.200;2024-03-29T05:30:22;3.93;;;2.30;;
417;SDS011;49;48.530;9.200;2024-03-29T05:32:50;2.40;;;2.20;;
417;SDS011;49;48.530;9.200;2024-03-29T05:35:17;2.40;;;2.20;;
417;SDS011;49;48.530;9.200;2024-03-29T05:37:44;2.40;;;2.20;;
417;SDS011;49;48.530;9.200;2024-03-29T05:40:15;3.43;;;2.80;;
417;SDS011;49;48.530;9.200;2024-03-29T05:42:42;3.47;;;2.57;;
417;SDS011;49;48.530;9.200;2024-03-29T05:45:21;2.53;;;2.40;;
417;SDS011;49;48.530;9.200;2024-03-29T05:47:51;6.03;;;3.27;;
417;SDS011;49;48.530;9.200;2024-03-29T05:50:18;4.40;;;3.00;;
417;SDS011;49;48.530;9.200;2024-03-29T05:52:45;4.40;;;3.43;;
417;SDS011;49;48.530;9.200;2024-03-29T05:55:11;4.93;;;3.10;;
417;SDS011;49;48.530;9.200;2024-03-29T05:57:38;5.70;;;3.63;;
417;SDS011;49;48.530;9.200;2024-03-29T06:00:07;6.40;;;3.80;;
417;SDS011;49;48.530;9.200;2024-03-29T06:02:35;5.60;;;3.40;;
417;SDS011;49;48.530;9.200;2024-03-29T06:05:03;5.37;;;3.73;;
417;SDS011;49;48.530;9.200;2024-03-29T06:07:30;4.67;;;3.70;;
417;SDS011;49;48.530;9.200;2024-03-29T06:09:58;5.30;;;3.57;;
417;SDS011;49;48.530;9.200;2024-03-29T06:12:25;4.43;;;3.67;;
417;SDS011;49;48.530;9.200;2024-03-29T06:14:52;6.43;;;3.90;;
417;SDS011;49;48.530;9.200;2024-03-29T06:17:36;5.30;;;3.30;;
417;SDS011;49;48.530;9.200;2024-03-29T06:20:05;5.73;;;3.60;;
417;SDS011;49;48.530;9.200;2024-03-29T06:22:32;5.60;;;3.27;;
417;SDS011;49;48.530;9.200;2024-03-29T06:24:59;7.30;;;3.60;;
417;SDS011;49;48.530;9.200;2024-03-29T06:27:29;6.33;;;3.63;;
417;SDS011;49;48.530;9.200;2024-03-29T06:29:57;6.03;;;3.33;;
417;SDS011;49;48.530;9.200;2024-03-29T06:32:23;16.30;;;4.20;;
417;SDS011;49;48.530;9.200;2024-03-29T06:34:50;8.77;;;3.80;;
417;SDS011;49;48.530;9.200;2024-03-29T06:37:18;6.27;;;3.93;;
417;SDS011;49;48.530;9.200;2024-03-29T06:39:46;5.93;;;3.67;;
417;SDS011;49;48.530;9.200;2024-03-29T06:42:13;8.50;;;3.77;;
417;SDS011;49;48.530;9.200;2024-03-29T06:44:40;6.80;;;3.90;;
417;SDS011;49;48.530;9.200;2024-03-29T06:47:07;6.47;;;3.90;;
417;SDS011;49;48.530;9.200;2024-03-29T06:49:35;6.20;;;4.53;;
417;SDS011;49;48.530;9.200;2024-03-29T06:52:02;5.87;;;4.33;;
417;SDS011;49;48.530;9.200;2024-03-29T06:54:30;5.83;;;4.03;;
417;SDS011;49;48.530;9.200;2024-03-29T06:56:57;6.33;;;4.43;;
417;SDS011;49;48.530;9.200;2024-03-29T06:59:25;5.90;;;4.13;;
417;SDS011;49;48.530;9.200;2024-03-29T07:01:53;7.27;;;4.50;;
417;SDS011;49;48.530;9.200;2024-03-29T07:04:20;6.60;;;4.57;;
417;SDS011;49;48.530;9.200;2024-03-29T07:06:47;5.40;;;3.80;;
417;SDS011;49;48.530;9.200;2024-03-29T07:09:16;7.17;;;4.30;;
417;SDS011;49;48.530;9.200;2024-03-29T07:11:46;4.83;;;3.70;;
417;SDS011;49;48.530;9.200;2024-03-29T07:14:13;6.70;;;3.93;;
417;SDS011;49;48.530;9.200;2024-03-29T07:16:40;8.03;;;3.50;;
417;SDS011;49;48.530;9.200;2024-03-29T07:19:07;6.00;;;3.90;;
417;SDS011;49;48.530;9.200;2024-03-29T07:21:33;5.73;;;3.63;;
417;SDS011;49;48.530;9.200;2024-03-29T07:24:00;7.90;;;3.70;;
417;SDS011;49;48.530;9.200;2024-03-29T07:26:27;10.43;;;3.80;;
417;SDS011;49;48.530;9.200;2024-03-29T07:28:55;6.83;;;4.17;;
417;SDS011;49;48.530;9.200;2024-03-29T07:31:22;8.87;;;4.30;;
417;SDS011;49;48.530;9.200;2024-03-29T07:33:49;7.93;;;5.00;;
417;SDS011;49;48.530;9.200;2024-03-29T07:36:15;9.93;;;5.17;;
417;SDS011;49;48.530;9.200;2024-03-29T07:38:42;8.33;;;4.50;;
417;SDS011;49;48.530;9.200;2024-03-29T07:41:09;7.10;;;4.53;;
417;SDS011;49;48.530;9.200;2024-03-29T07:43:39;8.07;;;4.60;;
417;SDS011;49;48.530;9.200;2024-03-29T07:46:08;7.67;;;4.07;;
417;SDS011;49;48.530;9.200;2024-03-29T07:48:35;14.03;;;5.50;;
417;SDS011;49;48.530;9.200;2024-03-29T07:51:02;6.93;;;4.57;;
417;SDS011;49;48.530;9.200;2024-03-29T07:53:29;11.70;;;6.87;;
417;SDS011;49;48.530;9.200;2024-03-29T07:55:56;7.60;;;4.83;;
417;SDS011;49;48.530;9.200;2024-03-29T07:58:22;11.20;;;6.40;;
417;SDS011;49;48.530;9.200;2024-03-29T08:00:50;5.97;;;4.70;;
417;SDS011;49;48.530;9.200;2024-03-29T08:03:19;10.37;;;4.30;;
417;SDS011;49;48.530;9.200;2024-03-29T08:05:55;7.13;;;4.50;;
417;SDS011;49;48.530;9.200;2024-03-29T08:08:22;7.40;;;4.40;;
417;SDS011;49;48.530;9.200;2024-03-29T08:10:50;7.60;;;5.17;;
417;SDS011;49;48.530;9.200;2024-03-29T08:13:17;14.20;;;4.83;;
417;SDS011;49;48.530;9.200;2024-03-29T08:15:45;6.97;;;4.93;;
417;SDS011;49;48.530;9.200;2024-03-29T08:18:12;10.40;;;5.77;;
417;SDS011;49;48.530;9.200;2024-03-29T08:20:41;7.23;;;4.80;;
417;SDS011;49;48.530;9.200;2024-03-29T08:23:08;8.43;;;5.57;;
417;SDS011;49;48.530;9.200;2024-03-29T08:25:35;6.63;;;4.40;;
417;SDS011;49;48.530;9.200;2024-03-29T08:28:02;12.47;;;4.67;;
417;SDS011;49;48.530;9.200;2024-03-29T08:30:29;7.57;;;5.07;;
417;SDS011;49;48.530;9.200;2024-03-29T08:33:00;9.77;;;5.20;;
417;SDS011;49;48.530;9.200;2024-03-29T08:35:28;12.50;;;6.90;;
417;SDS011;49;48.530;9.200;2024-03-29T08:37:56;11.67;;;5.20;;
417;SDS011;49;48.530;9.200;2024-03-29T08:40:23;10.90;;;6.40;;
417;SDS011;49;48.530;9.200;2024-03-29T08:42:53;7.93;;;4.57;;
417;SDS011;49;48.530;9.200;2024-03-29T08:45:20;9.80;;;5.07;;
417;SDS011;49;48.530;9.200;2024-03-29T08:47:47;7.40;;;4.90;;
417;SDS011;49;48.530;9.200;2024-03-29T08:50:14;8.87;;;4.83;;
417;SDS011;49;48.530;9.200;2024-03-29T08:52:41;8.40;;;4.43;;
417;SDS011;49;48.530;9.200;2024-03-29T08:55:10;15.33;;;4.63;;
417;SDS011;49;48.530;9.200;2024-03-29T08:57:37;5.83;;;3.90;;
417;SDS011;49;48.530;9.200;2024-03-29T09:00:04;9.10;;;3.53;;
417;SDS011;49;48.530;9.200;2024-03-29T09:02:33;5.17;;;3.60;;
417;SDS011;49;48.530;9.200;2024-03-29T09:04:59;9.73;;;4.53;;
417;SDS011;49;48.530;9.200;2024-03-29T09:07:27;6.50;;;4.03;;
417;SDS011;49;48.530;9.200;2024-03-29T09:09:54;13.93;;;4.70;;
417;SDS011;49;48.530;9.200;2024-03-29T09:12:22;7.67;;;4.53;;
417;SDS011;49;48.530;9.200;2024-03-29T09:14:49;6.57;;;4.33;;
417;SDS011;49;48.530;9.200;2024-03-29T09:17:16;6.60;;;4.00;;
417;SDS011;49;48.530;9.200;2024-03-29T09:19:42;6.87;;;4.10;;
417;SDS011;49;48.530;9.200;2024-03-29T09:22:09;6.37;;;4.30;;
417;SDS011;49;48.530;9.200;2024-03-29T09:24:36;6.87;;;4.10;;
417;SDS011;49;48.530;9.200;2024-03-29T09:27:04;6.10;;;4.23;;
417;SDS011;49;48.530;9.200;2024-03-29T09:29:33;8.37;;;4.60;;
417;SDS011;49;48.530;9.200;2024-03-29T09:32:00;6.60;;;4.63;;
417;SDS011;49;48.530;9.200;2024-03-29T09:34:27;16.20;;;8.50;;
417;SDS011;49;48.530;9.200;2024-03-29T09:36:54;9.00;;;5.70;;
417;SDS011;49;48.530;9.200;2024-03-29T09:39:20;9.67;;;5.40;;
417;SDS011;49;48.530;9.200;2024-03-29T09:41:47;7.83;;;4.83;;
417;SDS011;49;48.530;9.200;2024-03-29T09:44:15;5.80;;;4.13;;
417;SDS011;49;48.530;9.200;2024-03-29T09:46:44;8.93;;;4.40;;
417;SDS011;49;48.530;9.200;2024-03-29T09:49:12;8.33;;;4.10;;
417;SDS011;49;48.530;9.200;2024-03-29T09:51:39;5.40;;;4.00;;
417;SDS011;49;48.530;9.200;2024-03-29T09:54:06;4.17;;;3.37;;
417;SDS011;49;48.530;9.200;2024-03-29T09:56:38;5.13;;;3.50;;
417;SDS011;49;48.530;9.200;2024-03-29T09:59:05;4.60;;;3.60;;
417;SDS011;49;48.530;9.200;2024-03-29T10:01:34;7.37;;;3.80;;
417;SDS011;49;48.530;9.200;2024-03-29T10:04:02;6.00;;;3.23;;
417;SDS011;49;48.530;9.200;2024-03-29T10:06:30;7.90;;;3.70;;
417;SDS011;49;48.530;9.200;2024-03-29T10:09:03;3.73;;;2.80;;
417;SDS011;49;48.530;9.200;2024-03-29T10:11:29;5.00;;;3.10;;
417;SDS011;49;48.530;9.200;2024-03-29T10:13:57;4.83;;;3.47;;
417;SDS011;49;48.530;9.200;2024-03-29T10:16:24;4.37;;;3.40;;
417;SDS011;49;48.530;9.200;2024-03-29T10:18:51;7.47;;;3.93;;
417;SDS011;49;48.530;9.200;2024-03-29T10:21:24;6.03;;;4.30;;
417;SDS011;49;48.530;9.200;2024-03-29T10:23:51;3.53;;;2.97;;
417;SDS011;49;48.530;9.200;2024-03-29T10:26:18;4.57;;;2.80;;
417;SDS011;49;48.530;9.200;2024-03-29T10:28:46;5.50;;;3.50;;
417;SDS011;49;48.530;9.200;2024-03-29T10:31:14;6.63;;;2.57;;
417;SDS011;49;48.530;9.200;2024-03-29T10:33:42;4.50;;;3.20;;
417;SDS011;49;48.530;9.200;2024-03-29T10:36:09;4.87;;;2.83;;
417;SDS011;49;48.530;9.200;2024-03-29T10:38:38;3.33;;;2.80;;
417;SDS011;49;48.530;9.200;2024-03-29T10:41:05;4.47;;;2.93;;
417;SDS011;49;48.530;9.200;2024-03-29T10:43:33;8.40;;;2.73;;
417;SDS011;49;48.530;9.200;2024-03-29T10:46:00;4.33;;;2.70;;
417;SDS011;49;48.530;9.200;2024-03-29T10:48:28;4.23;;;3.30;;
417;SDS011;49;48.530;9.200;2024-03-29T10:50:58;9.10;;;3.40;;
417;SDS011;49;48.530;9.200;2024-03-29T10:53:26;5.80;;;3.83;;
417;SDS011;49;48.530;9.200;2024-03-29T10:55:56;11.13;;;3.57;;
417;SDS011;49;48.530;9.200;2024-03-29T10:58:25;5.77;;;3.40;;
417;SDS011;49;48.530;9.200;2024-03-29T11:00:57;9.27;;;4.00;;
417;SDS011;49;48.530;9.200;2024-03-29T11:03:27;13.43;;;3.53;;
417;SDS011;49;48.530;9.200;2024-03-29T11:06:02;6.80;;;3.47;;
417;SDS011;49;48.530;9.200;2024-03-29T11:08:31;16.50;;;4.50;;
417;SDS011;49;48.530;9.200;2024-03-29T11:11:01;5.93;;;3.67;;
417;SDS011;49;48.530;9.200;2024-03-29T11:13:32;13.73;;;3.60;;
417;SDS011;49;48.530;9.200;2024-03-29T11:16:03;4.53;;;3.60;;
417;SDS011;49;48.530;9.200;2024-03-29T11:18:31;11.00;;;4.77;;
417;SDS011;49;48.530;9.200;2024-03-29T11:20:59;5.43;;;3.80;;
417;SDS011;49;48.530;9.200;2024-03-29T11:23:31;10.13;;;3.47;;
417;SDS011;49;48.530;9.200;2024-03-29T11:25:58;4.27;;;3.00;;
417;SDS011;49;48.530;9.200;2024-03-29T11:28:29;5.30;;;2.70;;
417;SDS011;49;48.530;9.200;2024-03-29T11:30:58;4.23;;;2.83;;
417;SDS011;49;48.530;9.200;2024-03-29T11:33:30;10.60;;;3.77;;
417;SDS011;49;48.530;9.200;2024-03-29T11:35:58;4.20;;;2.63;;
417;SDS011;49;48.530;9.200;2024-03-29T11:38:29;4.40;;;3.43;;
417;SDS011;49;48.530;9.200;2024-03-29T11:41:05;5.70;;;2.47;;
417;SDS011;49;48.530;9.200;2024-03-29T11:43:33;7.07;;;3.40;;
417;SDS011;49;48.530;9.200;2024-03-29T11:46:01;4.43;;;2.77;;
417;SDS011;49;48.530;9.200;2024-03-29T11:48:30;5.10;;;3.10;;
417;SDS011;49;48.530;9.200;2024-03-29T11:51:00;3.97;;;2.83;;
417;SDS011;49;48.530;9.200;2024-03-29T11:53:29;7.40;;;3.30;;
417;SDS011;49;48.530;9.200;2024-03-29T11:55:56;6.37;;;2.73;;
417;SDS011;49;48.530;9.200;2024-03-29T11:58:25;6.07;;;2.90;;
417;SDS011;49;48.530;9.200;2024-03-29T12:00:53;3.77;;;2.53;;
417;SDS011;49;48.530;9.200;2024-03-29T12:03:21;2.70;;;2.20;;
417;SDS011;49;48.530;9.200;2024-03-29T12:05:48;4.90;;;2.57;;
417;SDS011;49;48.530;9.200;2024-03-29T12:08:17;3.10;;;2.40;;
417;SDS011;49;48.530;9.200;2024-03-29T12:10:44;12.30;;;2.67;;
417;SDS011;49;48.530;9.200;2024-03-29T12:13:11;3.87;;;2.30;;
417;SDS011;49;48.530;9.200;2024-03-29T12:15:41;4.10;;;2.77;;
417;SDS011;49;48.530;9.200;2024-03-29T12:18:08;6.00;;;2.53;;
417;SDS011;49;48.530;9.200;2024-03-29T12:20:35;2.93;;;2.30;;
417;SDS011;49;48.530;9.200;2024-03-29T12:23:03;8.17;;;2.37;;
417;SDS011;49;48.530;9.200;2024-03-29T12:25:32;4.03;;;2.87;;
417;SDS011;49;48.530;9.200;2024-03-29T12:28:00;3.40;;;2.60;;
417;SDS011;49;48.530;9.200;2024-03-29T12:30:27;4.37;;;2.43;;
417;SDS011;49;48.530;9.200;2024-03-29T12:33:01;3.17;;;2.33;;
417;SDS011;49;48.530;9.200;2024-03-29T12:35:29;3.10;;;2.40;;
417;SDS011;49;48.530;9.200;2024-03-29T12:37:57;4.80;;;2.47;;
417;SDS011;49;48.530;9.200;2024-03-29T12:40:25;3.30;;;2.23;;
417;SDS011;49;48.530;9.200;2024-03-29T12:42:55;2.67;;;2.27;;
417;SDS011;49;48.530;9.200;2024-03-29T12:45:24;4.40;;;2.67;;
417;SDS011;49;48.530;9.200;2024-03-29T12:47:51;4.43;;;2.97;;
417;SDS011;49;48.530;9.200;2024-03-29T12:50:25;4.40;;;2.90;;
417;SDS011;49;48.530;9.200;2024-03-29T12:52:54;4.43;;;2.60;;
417;SDS011;49;48.530;9.200;2024-03-29T12:55:23;5.30;;;2.53;;
417;SDS011;49;48.530;9.200;2024-03-29T12:57:55;2.73;;;2.17;;
417;SDS011;49;48.530;9.200;2024-03-29T13:00:23;4.90;;;2.70;;
417;SDS011;49;48.530;9.200;2024-03-29T13:02:50;7.83;;;2.20;;
417;SDS011;49;48.530;9.200;2024-03-29T13:05:17;4.10;;;2.40;;
417;SDS011;49;48.530;9.200;2024-03-29T13:07:45;5.40;;;2.77;;
417;SDS011;49;48.530;9.200;2024-03-29T13:10:13;3.80;;;2.17;;
417;SDS011;49;48.530;9.200;2024-03-29T13:12:40;1.83;;;1.77;;
417;SDS011;49;48.530;9.200;2024-03-29T13:15:15;2.43;;;2.07;;
417;SDS011;49;48.530;9.200;2024-03-29T13:17:44;3.70;;;2.60;;
417;SDS011;49;48.530;9.200;2024-03-29T13:20:12;2.57;;;2.17;;
417;SDS011;49;48.530;9.200;2024-03-29T13:22:41;3.70;;;2.20;;
417;SDS011;49;48.530;9.200;2024-03-29T13:25:12;3.37;;;2.40;;
417;SDS011;49;48.530;9.200;2024-03-29T13:27:40;2.47;;;2.27;;
417;SDS011;49;48.530;9.200;2024-03-29T13:30:08;4.00;;;2.63;;
417;SDS011;49;48.530;9.200;2024-03-29T13:32:38;2.70;;;2.17;;
417;SDS011;49;48.530;9.200;2024-03-29T13:35:06;4.50;;;2.50;;
417;SDS011;49;48.530;9.200;2024-03-29T13:37:35;3.77;;;2.67;;
417;SDS011;49;48.530;9.200;2024-03-29T13:40:03;3.83;;;2.27;;
417;SDS011;49;48.530;9.200;2024-03-29T13:42:33;4.10;;;2.23;;
417;SDS011;49;48.530;9.200;2024-03-29T13:45:00;5.10;;;2.50;;
417;SDS011;49;48.530;9.200;2024-03-29T13:47:27;3.13;;;2.47;;
417;SDS011;49;48.530;9.200;2024-03-29T13:49:54;2.63;;;2.37;;
417;SDS011;49;48.530;9.200;2024-03-29T13:52:22;3.40;;;2.60;;
417;SDS011;49;48.530;9.200;2024-03-29T13:54:52;3.33;;;2.63;;
417;SDS011;49;48.530;9.200;2024-03-29T13:57:20;9.73;;;6.37;;
417;SDS011;49;48.530;9.200;2024-03-29T13:59:51;12.93;;;4.37;;
417;SDS011;49;48.530;9.200;2024-03-29T14:02:18;3.30;;;2.37;;
417;SDS011;49;48.530;9.200;2024-03-29T14:04:46;4.30;;;2.30;;
417;SDS011;49;48.530;9.200;2024-03-29T14:07:15;3.53;;;2.57;;
417;SDS011;49;48.530;9.200;2024-03-29T14:09:42;4.80;;;2.40;;
417;SDS011;49;48.530;9.200;2024-03-29T14:12:12;9.27;;;2.40;;
417;SDS011;49;48.530;9.200;2024-03-29T14:14:40;6.63;;;2.40;;
417;SDS011;49;48.530;9.200;2024-03-29T14:17:10;3.83;;;2.20;;
417;SDS011;49;48.530;9.200;2024-03-29T14:19:39;4.23;;;2.53;;
417;SDS011;49;48.530;9.200;2024-03-29T14:22:06;3.10;;;2.60;;
417;SDS011;49;48.530;9.200;2024-03-29T14:24:33;2.57;;;2.13;;
417;SDS011;49;48.530;9.200;2024-03-29T14:27:06;7.33;;;2.37;;
417;SDS011;49;48.530;9.200;2024-03-29T14:29:33;6.33;;;2.27;;
417;SDS011;49;48.530;9.200;2024-03-29T14:32:01;4.13;;;2.57;;
417;SDS011;49;48.530;9.200;2024-03-29T14:34:30;4.67;;;2.30;;
417;SDS011;49;48.530;9.200;2024-03-29T14:36:59;2.30;;;2.10;;
417;SDS011;49;48.530;9.200;2024-03-29T14:39:27;3.43;;;2.43;;
417;SDS011;49;48.530;9.200;2024-03-29T14:41:54;2.73;;;2.23;;
417;SDS011;49;48.530;9.200;2024-03-29T14:44:23;3.20;;;2.53;;
417;SDS011;49;48.530;9.200;2024-03-29T14:46:50;5.80;;;2.83;;
417;SDS011;49;48.530;9.200;2024-03-29T14:49:17;7.17;;;3.20;;
417;SDS011;49;48.530;9.200;2024-03-29T14:51:47;5.83;;;2.50;;
417;SDS011;49;48.530;9.200;2024-03-29T14:54:13;5.90;;;2.80;;
417;SDS011;49;48.530;9.200;2024-03-29T14:56:40;2.90;;;2.30;;
417;SDS011;49;48.530;9.200;2024-03-29T14:59:07;5.93;;;2.90;;
417;SDS011;49;48.530;9.200;2024-03-29T15:01:36;5.07;;;2.70;;
417;SDS011;49;48.530;9.200;2024-03-29T15:04:04;4.33;;;2.80;;
417;SDS011;49;48.530;9.200;2024-03-29T15:06:31;4.57;;;2.50;;
417;SDS011;49;48.530;9.200;2024-03-29T15:08:59;4.37;;;2.93;;
417;SDS011;49;48.530;9.200;2024-03-29T15:11:27;6.80;;;2.50;;
417;SDS011;49;48.530;9.200;2024-03-29T15:13:54;6.33;;;2.70;;
417;SDS011;49;48.530;9.200;2024-03-29T15:16:21;4.90;;;2.60;;
417;SDS011;49;48.530;9.200;2024-03-29T15:18:52;3.87;;;2.20;;
417;SDS011;49;48.530;9.200;2024-03-29T15:21:21;4.70;;;2.90;;
417;SDS011;49;48.530;9.200;2024-03-29T15:23:48;5.50;;;3.10;;
417;SDS011;49;48.530;9.200;2024-03-29T15:26:17;4.30;;;2.97;;
417;SDS011;49;48.530;9.200;2024-03-29T15:28:44;3.50;;;2.70;;
417;SDS011;49;48.530;9.200;2024-03-29T15:31:35;2.83;;;2.20;;
417;SDS011;49;48.530;9.200;2024-03-29T15:34:01;8.47;;;2.90;;
417;SDS011;49;48.530;9.200;2024-03-29T15:36:29;8.90;;;2.97;;
417;SDS011;49;48.530;9.200;2024-03-29T15:38:57;5.27;;;3.20;;
417;SDS011;49;48.530;9.200;2024-03-29T15:41:32;3.90;;;2.80;;
417;SDS011;49;48.530;9.200;2024-03-29T15:44:00;7.83;;;2.73;;
417;SDS011;49;48.530;9.200;2024-03-29T15:46:27;2.97;;;2.33;;
417;SDS011;49;48.530;9.200;2024-03-29T15:48:54;3.47;;;2.20;;
417;SDS011;49;48.530;9.200;2024-03-29T15:51:21;2.63;;;2.30;;
417;SDS011;49;48.530;9.200;2024-03-29T15:53:49;10.90;;;2.70;;
417;SDS011;49;48.530;9.200;2024-03-29T15:56:17;4.77;;;2.43;;
417;SDS011;49;48.530;9.200;2024-03-29T15:58:45;6.30;;;2.80;;
417;SDS011;49;48.530;9.200;2024-03-29T16:01:13;3.40;;;2.50;;
417;SDS011;49;48.530;9.200;2024-03-29T16:03:41;5.37;;;2.30;;